createdAt,value
2022-12-01T00:01:15.912Z,13.00
2022-12-01T00:03:42.821Z,14.80
2022-12-01T00:06:17.767Z,13.77
2022-12-01T00:09:06.665Z,13.85
2022-12-01T00:11:34.909Z,12.88
2022-12-01T00:14:02.737Z,12.95
2022-12-01T00:16:29.720Z,15.75
2022-12-01T00:18:56.809Z,13.25
2022-12-01T00:21:25.091Z,12.18
2022-12-01T00:23:54.790Z,14.90
2022-12-01T00:26:22.727Z,14.05
2022-12-01T00:28:59.564Z,14.35
2022-12-01T00:31:26.579Z,14.50
2022-12-01T00:33:53.797Z,14.63
2022-12-01T00:36:21.671Z,14.10
2022-12-01T00:38:52.035Z,14.73
2022-12-01T00:41:19.296Z,14.82
2022-12-01T00:43:45.986Z,15.50
2022-12-01T00:46:12.762Z,17.02
2022-12-01T00:48:39.809Z,14.52
2022-12-01T00:51:06.970Z,14.45
2022-12-01T00:53:33.650Z,15.57
2022-12-01T00:56:00.841Z,15.07
2022-12-01T00:58:27.276Z,15.55
2022-12-01T01:01:00.138Z,14.50
2022-12-01T01:03:27.611Z,15.18
2022-12-01T01:05:54.391Z,17.05
2022-12-01T01:08:21.156Z,16.05
2022-12-01T01:10:48.832Z,15.85
2022-12-01T01:13:15.695Z,16.65
2022-12-01T01:15:42.549Z,15.77
2022-12-01T01:18:12.221Z,15.48
2022-12-01T01:20:39.060Z,17.05
2022-12-01T01:23:05.807Z,15.65
2022-12-01T01:25:32.921Z,16.60
2022-12-01T01:27:59.461Z,16.67
2022-12-01T01:30:26.256Z,16.55
2022-12-01T01:32:52.794Z,16.92
2022-12-01T01:35:19.246Z,16.80
2022-12-01T01:37:46.282Z,17.27
2022-12-01T01:40:13.039Z,16.27
2022-12-01T01:42:39.509Z,17.33
2022-12-01T01:45:29.504Z,16.95
2022-12-01T01:48:16.463Z,17.98
2022-12-01T01:51:03.892Z,17.42
2022-12-01T01:53:56.080Z,17.75
2022-12-01T01:56:44.459Z,17.42
2022-12-01T01:59:39.132Z,16.40
2022-12-01T02:02:08.827Z,17.80
2022-12-01T02:04:38.631Z,17.87
2022-12-01T02:07:06.263Z,17.95
2022-12-01T02:09:32.939Z,19.00
2022-12-01T02:12:25.322Z,18.73
2022-12-01T02:15:13.336Z,18.83
2022-12-01T02:17:42.972Z,18.27
2022-12-01T02:20:38.357Z,18.58
2022-12-01T02:23:28.746Z,17.67
2022-12-01T02:26:16.279Z,18.10
2022-12-01T02:29:25.053Z,17.58
2022-12-01T02:32:01.083Z,18.08
2022-12-01T02:34:43.296Z,18.35
2022-12-01T02:37:32.160Z,18.08
2022-12-01T02:40:13.222Z,18.33
2022-12-01T02:42:50.989Z,16.88
2022-12-01T02:45:36.003Z,17.02
2022-12-01T02:48:06.460Z,17.13
2022-12-01T02:50:35.142Z,16.92
2022-12-01T02:53:06.074Z,15.57
2022-12-01T02:55:32.857Z,15.95
2022-12-01T02:57:59.326Z,17.23
2022-12-01T03:00:26.148Z,15.88
2022-12-01T03:03:05.893Z,16.58
2022-12-01T03:05:51.768Z,15.05
2022-12-01T03:08:50.953Z,15.45
2022-12-01T03:11:32.593Z,16.13
2022-12-01T03:14:34.434Z,17.13
2022-12-01T03:17:08.544Z,17.08
2022-12-01T03:19:50.445Z,14.88
2022-12-01T03:22:25.683Z,15.18
2022-12-01T03:24:56.243Z,15.40
2022-12-01T03:27:27.286Z,17.38
2022-12-01T03:29:58.237Z,16.38
2022-12-01T03:32:33.383Z,15.95
2022-12-01T03:35:11.134Z,14.35
2022-12-01T03:38:15.539Z,15.65
2022-12-01T03:40:44.488Z,15.25
2022-12-01T03:43:15.999Z,16.52
2022-12-01T03:46:04.463Z,15.25
2022-12-01T03:48:31.878Z,15.43
2022-12-01T03:51:19.893Z,15.32
2022-12-01T03:53:56.600Z,14.77
2022-12-01T03:56:29.098Z,14.75
2022-12-01T03:58:58.588Z,15.35
2022-12-01T04:01:26.545Z,14.35
2022-12-01T04:03:53.420Z,13.45
2022-12-01T04:06:20.684Z,13.10
2022-12-01T04:08:47.127Z,14.27
2022-12-01T04:11:33.094Z,13.73
2022-12-01T04:14:00.021Z,13.77
2022-12-01T04:16:26.781Z,13.18
2022-12-01T04:18:53.298Z,14.05
2022-12-01T04:21:20.246Z,13.70
2022-12-01T04:24:01.929Z,14.15
2022-12-01T04:26:37.020Z,13.73
2022-12-01T04:29:09.581Z,14.00
2022-12-01T04:31:36.902Z,12.95
2022-12-01T04:34:04.088Z,14.02
2022-12-01T04:36:32.707Z,13.05
2022-12-01T04:38:59.477Z,14.43
2022-12-01T04:41:26.214Z,13.73
2022-12-01T04:43:54.684Z,13.13
2022-12-01T04:46:22.143Z,14.30
2022-12-01T04:48:48.955Z,14.88
2022-12-01T04:51:15.737Z,13.80
2022-12-01T04:53:42.193Z,14.55
2022-12-01T04:56:09.341Z,15.85
2022-12-01T04:58:37.699Z,14.77
2022-12-01T05:01:06.396Z,14.05
2022-12-01T05:03:37.311Z,14.93
2022-12-01T05:06:13.128Z,15.68
2022-12-01T05:08:40.573Z,16.52
2022-12-01T05:11:08.776Z,15.60
2022-12-01T05:14:12.871Z,15.93
2022-12-01T05:16:49.162Z,14.38
2022-12-01T05:23:05.263Z,14.48
2022-12-01T05:25:37.165Z,13.65
2022-12-01T05:28:09.303Z,14.20
2022-12-01T05:30:39.684Z,15.18
2022-12-01T05:33:07.477Z,15.07
2022-12-01T05:35:34.598Z,15.35
2022-12-01T05:38:06.101Z,14.38
2022-12-01T05:40:41.665Z,14.23
2022-12-01T05:43:09.168Z,14.50
2022-12-01T05:45:36.563Z,14.10
2022-12-01T05:48:05.899Z,14.18
2022-12-01T05:50:32.673Z,14.87
2022-12-01T05:52:59.325Z,14.02
2022-12-01T05:55:25.757Z,14.95
2022-12-01T05:57:52.548Z,16.10
2022-12-01T06:00:22.438Z,15.30
2022-12-01T06:02:48.857Z,15.93
2022-12-01T06:05:15.953Z,14.88
2022-12-01T06:07:42.855Z,15.57
2022-12-01T06:10:11.092Z,13.82
2022-12-01T06:12:38.624Z,14.25
2022-12-01T06:15:06.994Z,14.15
2022-12-01T06:17:39.781Z,14.77
2022-12-01T06:20:08.009Z,13.73
2022-12-01T06:22:34.733Z,14.45
2022-12-01T06:25:01.287Z,14.65
2022-12-01T06:27:27.800Z,15.77
2022-12-01T06:29:54.393Z,13.18
2022-12-01T06:32:21.375Z,14.70
2022-12-01T06:34:47.841Z,13.38
2022-12-01T06:37:15.700Z,15.60
2022-12-01T06:39:42.551Z,15.13
2022-12-01T06:42:09.370Z,15.60
2022-12-01T06:44:35.908Z,16.77
2022-12-01T06:47:02.565Z,15.32
2022-12-01T06:49:29.092Z,15.30
2022-12-01T06:51:56.421Z,14.98
2022-12-01T06:54:22.831Z,14.48
2022-12-01T06:56:49.492Z,14.73
2022-12-01T06:59:16.388Z,14.35
2022-12-01T07:01:43.560Z,14.63
2022-12-01T07:04:10.043Z,13.50
2022-12-01T07:06:36.444Z,14.85
2022-12-01T07:09:03.249Z,16.45
2022-12-01T07:11:32.150Z,15.35
2022-12-01T07:13:58.915Z,16.15
2022-12-01T07:16:25.993Z,14.82
2022-12-01T07:18:52.814Z,14.43
2022-12-01T07:21:19.377Z,15.27
2022-12-01T07:23:46.630Z,15.68
2022-12-01T07:26:15.593Z,14.23
2022-12-01T07:28:42.256Z,14.25
2022-12-01T07:31:14.938Z,14.48
2022-12-01T07:33:42.272Z,15.10
2022-12-01T07:36:10.804Z,14.40
2022-12-01T07:38:38.611Z,14.45
2022-12-01T07:41:19.408Z,15.10
2022-12-01T07:43:49.012Z,15.65
2022-12-01T07:46:23.312Z,14.63
2022-12-01T07:48:51.667Z,14.48
2022-12-01T07:51:19.405Z,14.82
2022-12-01T07:53:47.303Z,14.65
2022-12-01T07:56:14.507Z,14.65
2022-12-01T07:58:41.880Z,15.95
2022-12-01T08:01:14.293Z,15.63
2022-12-01T08:03:41.320Z,14.57
2022-12-01T08:06:09.090Z,14.75
2022-12-01T08:08:38.191Z,14.38
2022-12-01T08:11:08.900Z,15.07
2022-12-01T08:13:35.714Z,15.05
2022-12-01T08:16:07.798Z,14.40
2022-12-01T08:18:39.330Z,14.35
2022-12-01T08:21:07.732Z,14.73
2022-12-01T08:23:34.918Z,14.27
2022-12-01T08:26:02.826Z,15.93
2022-12-01T08:28:29.780Z,17.33
2022-12-01T08:30:56.760Z,15.27
2022-12-01T08:33:26.700Z,14.88
2022-12-01T08:35:54.902Z,14.13
2022-12-01T08:38:21.488Z,14.25
2022-12-01T08:40:47.980Z,13.50
2022-12-01T08:43:41.512Z,13.25
2022-12-01T08:46:02.099Z,13.93
2022-12-01T08:48:31.868Z,14.23
2022-12-01T08:51:10.041Z,14.30
2022-12-01T08:53:44.006Z,13.98
2022-12-01T08:56:18.045Z,14.85
2022-12-01T08:58:50.312Z,15.50
2022-12-01T09:01:17.859Z,15.68
2022-12-01T09:03:44.741Z,13.90
2022-12-01T09:06:17.650Z,15.45
2022-12-01T09:08:44.437Z,14.90
2022-12-01T09:11:13.750Z,14.60
2022-12-01T09:13:42.161Z,14.60
2022-12-01T09:16:14.769Z,15.63
2022-12-01T09:18:43.276Z,14.70
2022-12-01T09:21:24.500Z,15.90
2022-12-01T09:23:51.635Z,16.08
2022-12-01T09:26:19.590Z,17.05
2022-12-01T09:28:48.512Z,15.48
2022-12-01T09:31:16.313Z,15.85
2022-12-01T09:33:45.577Z,16.75
2022-12-01T09:36:13.498Z,14.63
2022-12-01T09:38:40.290Z,15.25
2022-12-01T09:41:21.519Z,15.82
2022-12-01T09:43:59.118Z,14.77
2022-12-01T09:46:31.997Z,16.95
2022-12-01T09:49:02.836Z,16.65
2022-12-01T09:51:30.942Z,15.05
2022-12-01T09:53:59.621Z,15.30
2022-12-01T09:56:32.878Z,15.38
2022-12-01T09:59:02.126Z,16.80
2022-12-01T10:01:41.581Z,16.58
2022-12-01T10:04:36.322Z,15.65
2022-12-01T10:07:24.513Z,15.57
2022-12-01T10:10:01.230Z,15.02
2022-12-01T10:12:32.496Z,14.85
2022-12-01T10:15:30.150Z,15.98
2022-12-01T10:18:16.607Z,15.85
2022-12-01T10:20:55.634Z,13.77
2022-12-01T10:23:28.166Z,13.55
2022-12-01T10:26:00.547Z,14.95
2022-12-01T10:28:39.412Z,12.82
2022-12-01T10:31:18.198Z,13.48
2022-12-01T10:34:11.996Z,14.10
2022-12-01T10:36:38.524Z,14.77
2022-12-01T10:39:09.345Z,13.95
2022-12-01T10:41:38.747Z,14.10
2022-12-01T10:44:07.560Z,13.85
2022-12-01T10:46:45.394Z,14.60
2022-12-01T10:49:15.817Z,12.15
2022-12-01T10:51:55.709Z,13.60
2022-12-01T10:54:31.220Z,15.52
2022-12-01T10:56:59.296Z,15.43
2022-12-01T10:59:34.333Z,12.95
2022-12-01T11:02:02.660Z,13.48
2022-12-01T11:04:46.517Z,13.13
2022-12-01T11:07:20.222Z,14.77
2022-12-01T11:09:55.827Z,13.00
2022-12-01T11:12:23.459Z,13.68
2022-12-01T11:14:52.574Z,14.35
2022-12-01T11:17:43.810Z,14.85
2022-12-01T11:20:39.316Z,13.93
2022-12-01T11:23:21.330Z,14.57
2022-12-01T11:26:12.597Z,13.38
2022-12-01T11:28:44.038Z,13.23
2022-12-01T11:31:12.142Z,13.45
2022-12-01T11:33:58.918Z,14.73
2022-12-01T11:36:33.080Z,14.02
2022-12-01T11:39:01.907Z,13.77
2022-12-01T11:41:32.668Z,13.93
2022-12-01T11:44:04.149Z,14.80
2022-12-01T11:46:46.478Z,15.43
2022-12-01T11:49:22.671Z,14.43
2022-12-01T11:51:50.008Z,13.57
2022-12-01T11:54:21.713Z,15.13
2022-12-01T11:56:56.153Z,13.63
2022-12-01T11:59:36.235Z,13.77
2022-12-01T12:02:28.475Z,14.85
2022-12-01T12:05:13.887Z,14.10
2022-12-01T12:08:18.083Z,14.25
2022-12-01T12:10:57.094Z,17.17
2022-12-01T12:13:32.803Z,14.60
2022-12-01T12:16:12.417Z,13.73
2022-12-01T12:19:03.227Z,15.27
2022-12-01T12:22:07.420Z,14.25
2022-12-01T12:24:50.583Z,14.52
2022-12-01T12:27:26.750Z,13.50
2022-12-01T12:30:21.695Z,15.60
2022-12-01T12:32:58.729Z,14.38
2022-12-01T12:35:35.665Z,14.10
2022-12-01T12:38:34.642Z,14.43
2022-12-01T12:41:31.871Z,13.32
2022-12-01T12:44:37.047Z,12.63
2022-12-01T12:47:31.468Z,13.27
2022-12-01T12:50:06.299Z,12.80
2022-12-01T12:52:34.755Z,12.90
2022-12-01T12:55:12.447Z,14.68
2022-12-01T12:57:45.672Z,13.05
2022-12-01T13:00:12.475Z,13.30
2022-12-01T13:03:05.899Z,11.80
2022-12-01T13:05:44.539Z,12.82
2022-12-01T13:08:20.409Z,12.70
2022-12-01T13:11:02.354Z,13.20
2022-12-01T13:13:51.346Z,13.65
2022-12-01T13:16:24.338Z,12.98
2022-12-01T13:18:56.090Z,14.15
2022-12-01T13:21:24.025Z,13.57
2022-12-01T13:23:52.301Z,11.80
2022-12-01T13:26:21.281Z,13.25
2022-12-01T13:28:51.713Z,13.50
2022-12-01T13:31:20.854Z,12.95
2022-12-01T13:34:00.618Z,14.15
2022-12-01T13:39:36.397Z,14.43
2022-12-01T13:42:05.695Z,15.00
2022-12-01T13:44:44.647Z,13.73
2022-12-01T13:47:11.425Z,12.63
2022-12-01T13:49:40.460Z,14.95
2022-12-01T13:52:22.529Z,14.10
2022-12-01T13:55:07.702Z,13.27
2022-12-01T13:57:47.479Z,12.60
2022-12-01T14:00:26.944Z,13.57
2022-12-01T14:03:12.541Z,14.38
2022-12-01T14:05:39.715Z,12.80
2022-12-01T14:08:40.280Z,12.30
2022-12-01T14:11:19.296Z,13.00
2022-12-01T14:13:59.478Z,14.18
2022-12-01T14:16:58.655Z,12.38
2022-12-01T14:19:35.905Z,13.02
2022-12-01T14:22:04.653Z,13.57
2022-12-01T14:24:42.388Z,12.95
2022-12-01T14:27:11.799Z,13.43
2022-12-01T14:29:42.988Z,11.73
2022-12-01T14:32:09.494Z,12.63
2022-12-01T14:34:38.036Z,12.05
2022-12-01T14:37:19.822Z,12.52
2022-12-01T14:39:58.375Z,11.38
2022-12-01T14:42:52.361Z,10.85
2022-12-01T14:45:24.958Z,12.48
2022-12-01T14:47:59.087Z,12.10
2022-12-01T14:50:33.194Z,12.35
2022-12-01T14:53:16.560Z,13.93
2022-12-01T14:55:53.893Z,12.30
2022-12-01T14:58:24.572Z,13.13
2022-12-01T15:01:05.831Z,12.45
2022-12-01T15:03:49.978Z,13.13
2022-12-01T15:06:25.172Z,15.80
2022-12-01T15:09:34.936Z,14.20
2022-12-01T15:12:07.244Z,14.23
2022-12-01T15:14:37.600Z,13.48
2022-12-01T15:17:06.110Z,14.68
2022-12-01T15:19:35.839Z,13.02
2022-12-01T15:22:06.347Z,13.18
2022-12-01T15:24:34.088Z,13.68
2022-12-01T15:27:03.937Z,14.95
2022-12-01T15:29:44.651Z,15.15
2022-12-01T15:32:16.372Z,13.20
2022-12-01T15:34:45.857Z,15.88
2022-12-01T15:37:24.391Z,15.18
2022-12-01T15:40:10.063Z,18.77
2022-12-01T15:42:43.059Z,20.88
2022-12-01T15:45:22.683Z,19.08
2022-12-01T15:47:51.680Z,22.50
2022-12-01T15:50:39.745Z,22.73
2022-12-01T15:53:27.508Z,27.55
2022-12-01T15:55:59.108Z,22.92
2022-12-01T15:58:32.868Z,18.17
2022-12-01T16:01:03.106Z,15.85
2022-12-01T16:03:30.201Z,15.60
2022-12-01T16:05:57.951Z,15.80
2022-12-01T16:08:27.405Z,16.05
2022-12-01T16:11:13.785Z,16.13
2022-12-01T16:13:45.131Z,15.18
2022-12-01T16:16:46.467Z,14.98
2022-12-01T16:19:12.950Z,15.57
2022-12-01T16:22:01.252Z,15.27
2022-12-01T16:24:35.694Z,15.20
2022-12-01T16:27:05.991Z,16.40
2022-12-01T16:29:49.897Z,17.33
2022-12-01T16:32:38.759Z,17.70
2022-12-01T16:35:20.201Z,18.38
2022-12-01T16:37:46.921Z,17.83
2022-12-01T16:40:16.810Z,16.52
2022-12-01T16:42:43.411Z,16.40
2022-12-01T16:45:15.830Z,17.10
2022-12-01T16:47:43.240Z,15.65
2022-12-01T16:50:14.800Z,16.23
2022-12-01T16:52:44.708Z,16.58
2022-12-01T16:55:42.363Z,16.83
2022-12-01T16:58:09.010Z,17.08
2022-12-01T17:00:36.122Z,16.48
2022-12-01T17:03:03.103Z,16.08
2022-12-01T17:05:30.718Z,16.90
2022-12-01T17:08:00.148Z,15.93
2022-12-01T17:10:26.910Z,15.80
2022-12-01T17:12:53.919Z,17.15
2022-12-01T17:15:20.447Z,18.38
2022-12-01T17:17:47.344Z,18.15
2022-12-01T17:20:14.813Z,18.83
2022-12-01T17:22:41.646Z,17.88
2022-12-01T17:25:09.668Z,18.73
2022-12-01T17:27:37.783Z,19.13
2022-12-01T17:30:06.274Z,16.52
2022-12-01T17:32:32.751Z,18.15
2022-12-01T17:35:00.391Z,18.83
2022-12-01T17:37:29.918Z,18.90
2022-12-01T17:39:56.698Z,18.05
2022-12-01T17:42:23.228Z,20.25
2022-12-01T17:44:49.994Z,19.23
2022-12-01T17:47:16.942Z,18.70
2022-12-01T17:49:43.535Z,20.85
2022-12-01T17:52:10.545Z,19.70
2022-12-01T17:54:38.266Z,19.50
2022-12-01T17:57:06.818Z,19.00
2022-12-01T17:59:35.016Z,19.40
2022-12-01T18:02:01.707Z,19.27
2022-12-01T18:04:30.653Z,18.70
2022-12-01T18:07:00.972Z,19.65
2022-12-01T18:09:27.908Z,18.63
2022-12-01T18:11:56.350Z,19.42
2022-12-01T18:14:24.569Z,18.95
2022-12-01T18:16:52.277Z,19.65
2022-12-01T18:19:20.300Z,19.60
2022-12-01T18:21:47.169Z,19.70
2022-12-01T18:24:13.617Z,20.20
2022-12-01T18:26:40.900Z,20.90
2022-12-01T18:29:13.017Z,20.65
2022-12-01T18:31:40.892Z,22.02
2022-12-01T18:34:08.946Z,20.73
2022-12-01T18:36:37.899Z,20.85
2022-12-01T18:39:07.526Z,22.65
2022-12-01T18:41:35.250Z,22.17
2022-12-01T18:44:02.642Z,23.33
2022-12-01T18:46:29.546Z,22.50
2022-12-01T18:49:04.531Z,23.02
2022-12-01T18:51:33.396Z,22.27
2022-12-01T18:54:01.575Z,23.55
2022-12-01T18:56:29.379Z,23.08
2022-12-01T18:58:58.199Z,22.85
2022-12-01T19:01:27.221Z,26.85
2022-12-01T19:03:58.070Z,25.40
2022-12-01T19:06:25.813Z,26.35
2022-12-01T19:08:54.579Z,27.10
2022-12-01T19:11:22.098Z,26.15
2022-12-01T19:13:48.833Z,24.05
2022-12-01T19:16:18.104Z,26.23
2022-12-01T19:18:45.590Z,26.00
2022-12-01T19:21:16.334Z,24.50
2022-12-01T19:23:43.780Z,26.13
2022-12-01T19:26:17.209Z,24.00
2022-12-01T19:28:45.861Z,24.58
2022-12-01T19:31:19.403Z,24.88
2022-12-01T19:33:46.965Z,25.40
2022-12-01T19:36:19.686Z,23.92
2022-12-01T19:38:47.480Z,26.08
2022-12-01T19:41:15.160Z,26.02
2022-12-01T19:43:42.635Z,25.15
2022-12-01T19:46:14.941Z,24.10
2022-12-01T19:48:43.141Z,25.05
2022-12-01T19:51:21.474Z,25.90
2022-12-01T19:53:48.906Z,27.90
2022-12-01T19:56:15.666Z,27.95
2022-12-01T19:58:42.756Z,28.00
2022-12-01T20:01:15.165Z,29.17
2022-12-01T20:03:44.267Z,27.42
2022-12-01T20:06:12.646Z,28.00
2022-12-01T20:08:39.955Z,27.17
2022-12-01T20:11:07.548Z,28.80
2022-12-01T20:13:40.179Z,32.00
2022-12-01T20:16:19.613Z,30.15
2022-12-01T20:18:47.041Z,29.88
2022-12-01T20:21:21.174Z,28.42
2022-12-01T20:23:55.530Z,30.30
2022-12-01T20:26:28.929Z,31.50
2022-12-01T20:29:01.040Z,31.10
2022-12-01T20:31:30.021Z,34.00
2022-12-01T20:33:58.205Z,29.73
2022-12-01T20:36:25.742Z,29.90
2022-12-01T20:38:52.706Z,29.67
2022-12-01T20:41:19.694Z,29.45
2022-12-01T20:43:46.885Z,29.70
2022-12-01T20:46:14.344Z,30.58
2022-12-01T20:48:41.592Z,29.83
2022-12-01T20:51:11.273Z,27.45
2022-12-01T20:53:40.065Z,29.95
2022-12-01T20:56:10.261Z,30.00
2022-12-01T20:58:38.200Z,32.28
2022-12-01T21:01:09.360Z,30.45
2022-12-01T21:03:38.213Z,28.58
2022-12-01T21:06:06.259Z,30.05
2022-12-01T21:08:33.380Z,29.13
2022-12-01T21:11:08.504Z,28.60
2022-12-01T21:13:44.611Z,31.15
2022-12-01T21:16:16.527Z,30.45
2022-12-01T21:19:11.817Z,29.38
2022-12-01T21:21:40.174Z,30.52
2022-12-01T21:24:15.818Z,29.40
2022-12-01T21:27:06.735Z,30.13
2022-12-01T21:29:41.749Z,28.42
2022-12-01T21:32:29.012Z,28.58
2022-12-01T21:35:01.296Z,31.05
2022-12-01T21:37:31.512Z,29.88
2022-12-01T21:39:58.224Z,29.85
2022-12-01T21:42:31.535Z,29.73
2022-12-01T21:44:58.324Z,30.15
2022-12-01T21:47:29.909Z,29.45
2022-12-01T21:50:03.170Z,31.23
2022-12-01T21:52:39.044Z,30.33
2022-12-01T21:55:15.240Z,31.13
2022-12-01T21:57:43.587Z,30.63
2022-12-01T22:00:22.256Z,30.67
2022-12-01T22:03:02.451Z,31.95
2022-12-01T22:05:36.542Z,31.07
2022-12-01T22:08:21.855Z,29.77
2022-12-01T22:10:56.449Z,31.15
2022-12-01T22:13:36.627Z,29.20
2022-12-01T22:16:03.389Z,31.50
2022-12-01T22:18:37.922Z,32.13
2022-12-01T22:21:22.763Z,30.55
2022-12-01T22:23:56.867Z,30.23
2022-12-01T22:26:24.254Z,29.55
2022-12-01T22:28:55.088Z,31.20
2022-12-01T22:31:22.510Z,32.20
2022-12-01T22:34:01.501Z,31.55
2022-12-01T22:36:33.205Z,30.52
2022-12-01T22:38:59.860Z,29.90
2022-12-01T22:41:28.463Z,32.10
2022-12-01T22:44:22.485Z,29.83
2022-12-01T22:46:49.187Z,29.90
2022-12-01T22:49:22.068Z,31.08
2022-12-01T22:51:57.013Z,32.35
2022-12-01T22:54:49.147Z,29.13
2022-12-01T22:57:34.781Z,31.48
2022-12-01T23:00:14.291Z,32.78
2022-12-01T23:02:40.999Z,30.55
2022-12-01T23:05:27.363Z,30.67
2022-12-01T23:07:54.831Z,28.90
2022-12-01T23:10:24.384Z,30.65
2022-12-01T23:12:53.846Z,30.88
2022-12-01T23:15:38.884Z,33.03
2022-12-01T23:18:13.939Z,32.35
2022-12-01T23:20:42.447Z,32.05
2022-12-01T23:23:13.964Z,31.17
2022-12-01T23:25:42.091Z,32.42
2022-12-01T23:28:10.474Z,32.83
2022-12-01T23:30:40.541Z,32.85
2022-12-01T23:33:22.025Z,31.75
2022-12-01T23:36:05.502Z,32.60
2022-12-01T23:38:45.515Z,32.08
2022-12-01T23:41:31.251Z,31.55
2022-12-01T23:44:03.444Z,29.23
2022-12-01T23:46:32.589Z,30.05
2022-12-01T23:49:05.130Z,32.20
2022-12-01T23:51:40.043Z,31.13
2022-12-01T23:54:14.065Z,31.67
2022-12-01T23:56:40.608Z,32.67
2022-12-01T23:59:12.849Z,30.33
